sensor_id;sensor_type;location;lat;lon;timestamp;temperature;humidity
14031;DHT22;7090;49.436;8.490;2023-12-20T00:00:03;5.90;99.90
14031;DHT22;7090;49.436;8.490;2023-12-20T00:02:31;5.90;99.90
14031;DHT22;7090;49.436;8.490;2023-12-20T00:05:00;5.90;99.90
14031;DHT22;7090;49.436;8.490;2023-12-20T00:07:26;6.00;99.90
14031;DHT22;7090;49.436;8.490;2023-12-20T00:09:51;6.00;99.90
14031;DHT22;7090;49.436;8.490;2023-12-20T00:12:17;6.00;99.90
14031;DHT22;7090;49.436;8.490;2023-12-20T00:14:42;6.00;99.90
14031;DHT22;7090;49.436;8.490;2023-12-20T00:17:08;6.00;99.90
14031;DHT22;7090;49.436;8.490;2023-12-20T00:19:33;6.00;99.90
14031;DHT22;7090;49.436;8.490;2023-12-20T00:21:59;6.00;99.90
14031;DHT22;7090;49.436;8.490;2023-12-20T00:24:25;6.00;99.90
14031;DHT22;7090;49.436;8.490;2023-12-20T00:26:50;6.00;99.90
14031;DHT22;7090;49.436;8.490;2023-12-20T00:29:16;6.00;99.90
14031;DHT22;7090;49.436;8.490;2023-12-20T00:31:42;6.00;99.90
14031;DHT22;7090;49.436;8.490;2023-12-20T00:34:07;6.00;99.90
14031;DHT22;7090;49.436;8.490;2023-12-20T00:36:33;6.00;99.90
14031;DHT22;7090;49.436;8.490;2023-12-20T00:38:58;6.00;99.90
14031;DHT22;7090;49.436;8.490;2023-12-20T00:41:24;6.00;99.90
14031;DHT22;7090;49.436;8.490;2023-12-20T00:43:49;6.00;99.90
14031;DHT22;7090;49.436;8.490;2023-12-20T00:46:15;6.00;99.90
14031;DHT22;7090;49.436;8.490;2023-12-20T00:48:41;6.00;99.90
14031;DHT22;7090;49.436;8.490;2023-12-20T00:51:07;6.00;99.90
14031;DHT22;7090;49.436;8.490;2023-12-20T00:53:33;6.00;99.90
14031;DHT22;7090;49.436;8.490;2023-12-20T00:55:59;6.00;99.90
14031;DHT22;7090;49.436;8.490;2023-12-20T00:58:24;6.00;99.90
14031;DHT22;7090;49.436;8.490;2023-12-20T01:00:50;6.00;99.90
14031;DHT22;7090;49.436;8.490;2023-12-20T01:03:15;6.10;99.90
14031;DHT22;7090;49.436;8.490;2023-12-20T01:05:41;6.00;99.90
14031;DHT22;7090;49.436;8.490;2023-12-20T01:08:06;6.00;99.90
14031;DHT22;7090;49.436;8.490;2023-12-20T01:10:32;6.00;99.90
14031;DHT22;7090;49.436;8.490;2023-12-20T01:12:57;6.00;99.90
14031;DHT22;7090;49.436;8.490;2023-12-20T01:15:23;6.00;99.90
14031;DHT22;7090;49.436;8.490;2023-12-20T01:17:49;6.00;99.90
14031;DHT22;7090;49.436;8.490;2023-12-20T01:20:14;6.00;99.90
14031;DHT22;7090;49.436;8.490;2023-12-20T01:22:40;6.00;99.90
14031;DHT22;7090;49.436;8.490;2023-12-20T01:25:08;6.00;99.90
14031;DHT22;7090;49.436;8.490;2023-12-20T01:27:33;6.00;99.90
14031;DHT22;7090;49.436;8.490;2023-12-20T01:29:59;6.00;99.90
14031;DHT22;7090;49.436;8.490;2023-12-20T01:32:24;6.00;99.90
14031;DHT22;7090;49.436;8.490;2023-12-20T01:34:50;5.90;99.90
14031;DHT22;7090;49.436;8.490;2023-12-20T01:37:16;5.90;99.90
14031;DHT22;7090;49.436;8.490;2023-12-20T01:39:41;5.90;99.90
14031;DHT22;7090;49.436;8.490;2023-12-20T01:42:07;5.90;99.90
14031;DHT22;7090;49.436;8.490;2023-12-20T01:44:32;6.00;99.90
14031;DHT22;7090;49.436;8.490;2023-12-20T01:46:58;6.00;99.90
14031;DHT22;7090;49.436;8.490;2023-12-20T01:49:23;5.90;99.90
14031;DHT22;7090;49.436;8.490;2023-12-20T01:51:50;5.90;99.90
14031;DHT22;7090;49.436;8.490;2023-12-20T01:54:16;5.90;99.90
14031;DHT22;7090;49.436;8.490;2023-12-20T01:56:42;5.90;99.90
14031;DHT22;7090;49.436;8.490;2023-12-20T01:59:16;5.90;99.90
14031;DHT22;7090;49.436;8.490;2023-12-20T02:01:43;5.90;99.90
14031;DHT22;7090;49.436;8.490;2023-12-20T02:04:08;5.90;99.90
14031;DHT22;7090;49.436;8.490;2023-12-20T02:06:34;5.90;99.90
14031;DHT22;7090;49.436;8.490;2023-12-20T02:09:00;5.90;99.90
14031;DHT22;7090;49.436;8.490;2023-12-20T02:11:26;5.90;99.90
14031;DHT22;7090;49.436;8.490;2023-12-20T02:13:52;5.90;99.90
14031;DHT22;7090;49.436;8.490;2023-12-20T02:16:18;5.90;99.90
14031;DHT22;7090;49.436;8.490;2023-12-20T02:18:44;5.80;99.90
14031;DHT22;7090;49.436;8.490;2023-12-20T02:21:10;5.90;99.90
14031;DHT22;7090;49.436;8.490;2023-12-20T02:23:35;5.80;99.90
14031;DHT22;7090;49.436;8.490;2023-12-20T02:26:02;5.90;99.90
14031;DHT22;7090;49.436;8.490;2023-12-20T02:28:28;5.80;99.90
14031;DHT22;7090;49.436;8.490;2023-12-20T02:30:53;5.80;99.90
14031;DHT22;7090;49.436;8.490;2023-12-20T02:33:19;5.80;99.90
14031;DHT22;7090;49.436;8.490;2023-12-20T02:35:44;5.80;99.90
14031;DHT22;7090;49.436;8.490;2023-12-20T02:38:10;5.80;99.90
14031;DHT22;7090;49.436;8.490;2023-12-20T02:40:36;5.80;99.90
14031;DHT22;7090;49.436;8.490;2023-12-20T02:43:02;5.80;99.90
14031;DHT22;7090;49.436;8.490;2023-12-20T02:45:27;5.80;99.90
14031;DHT22;7090;49.436;8.490;2023-12-20T02:47:53;5.80;99.90
14031;DHT22;7090;49.436;8.490;2023-12-20T02:50:18;5.80;99.90
14031;DHT22;7090;49.436;8.490;2023-12-20T02:52:47;5.80;99.90
14031;DHT22;7090;49.436;8.490;2023-12-20T02:55:13;5.80;99.90
14031;DHT22;7090;49.436;8.490;2023-12-20T02:57:38;5.80;99.90
14031;DHT22;7090;49.436;8.490;2023-12-20T03:00:08;5.80;99.90
14031;DHT22;7090;49.436;8.490;2023-12-20T03:02:35;5.80;99.90
14031;DHT22;7090;49.436;8.490;2023-12-20T03:05:01;5.80;99.90
14031;DHT22;7090;49.436;8.490;2023-12-20T03:07:26;5.80;99.90
14031;DHT22;7090;49.436;8.490;2023-12-20T03:09:52;5.80;99.90
14031;DHT22;7090;49.436;8.490;2023-12-20T03:12:17;5.80;99.90
14031;DHT22;7090;49.436;8.490;2023-12-20T03:14:44;5.80;99.90
14031;DHT22;7090;49.436;8.490;2023-12-20T03:17:10;5.80;99.90
14031;DHT22;7090;49.436;8.490;2023-12-20T03:19:35;5.80;99.90
14031;DHT22;7090;49.436;8.490;2023-12-20T03:22:01;5.80;99.90
14031;DHT22;7090;49.436;8.490;2023-12-20T03:24:27;5.80;99.90
14031;DHT22;7090;49.436;8.490;2023-12-20T03:26:53;5.80;99.90
14031;DHT22;7090;49.436;8.490;2023-12-20T03:29:18;5.80;99.90
14031;DHT22;7090;49.436;8.490;2023-12-20T03:31:44;5.80;99.90
14031;DHT22;7090;49.436;8.490;2023-12-20T03:34:09;5.80;99.90
14031;DHT22;7090;49.436;8.490;2023-12-20T03:36:36;5.80;99.90
14031;DHT22;7090;49.436;8.490;2023-12-20T03:39:01;5.80;99.90
14031;DHT22;7090;49.436;8.490;2023-12-20T03:41:27;5.80;99.90
14031;DHT22;7090;49.436;8.490;2023-12-20T03:43:52;5.80;99.90
14031;DHT22;7090;49.436;8.490;2023-12-20T03:46:18;5.80;99.90
14031;DHT22;7090;49.436;8.490;2023-12-20T03:48:43;5.80;99.90
14031;DHT22;7090;49.436;8.490;2023-12-20T03:51:09;5.80;99.90
14031;DHT22;7090;49.436;8.490;2023-12-20T03:53:35;5.80;99.90
14031;DHT22;7090;49.436;8.490;2023-12-20T03:56:00;5.80;99.90
14031;DHT22;7090;49.436;8.490;2023-12-20T03:58:35;5.80;99.90
14031;DHT22;7090;49.436;8.490;2023-12-20T04:01:01;5.80;99.90
14031;DHT22;7090;49.436;8.490;2023-12-20T04:03:26;5.80;99.90
14031;DHT22;7090;49.436;8.490;2023-12-20T04:05:53;5.90;99.90
14031;DHT22;7090;49.436;8.490;2023-12-20T04:08:18;5.80;99.90
14031;DHT22;7090;49.436;8.490;2023-12-20T04:10:44;5.90;99.90
14031;DHT22;7090;49.436;8.490;2023-12-20T04:13:09;5.90;99.90
14031;DHT22;7090;49.436;8.490;2023-12-20T04:15:35;5.90;99.90
14031;DHT22;7090;49.436;8.490;2023-12-20T04:18:00;5.90;99.90
14031;DHT22;7090;49.436;8.490;2023-12-20T04:20:26;5.90;99.90
14031;DHT22;7090;49.436;8.490;2023-12-20T04:22:51;5.90;99.90
14031;DHT22;7090;49.436;8.490;2023-12-20T04:25:17;5.90;99.90
14031;DHT22;7090;49.436;8.490;2023-12-20T04:27:43;5.90;99.90
14031;DHT22;7090;49.436;8.490;2023-12-20T04:30:08;5.90;99.90
14031;DHT22;7090;49.436;8.490;2023-12-20T04:32:34;6.00;99.90
14031;DHT22;7090;49.436;8.490;2023-12-20T04:35:00;6.00;99.90
14031;DHT22;7090;49.436;8.490;2023-12-20T04:37:25;6.00;99.90
14031;DHT22;7090;49.436;8.490;2023-12-20T04:39:51;6.00;99.90
14031;DHT22;7090;49.436;8.490;2023-12-20T04:42:16;6.00;99.90
14031;DHT22;7090;49.436;8.490;2023-12-20T04:44:42;5.90;99.90
14031;DHT22;7090;49.436;8.490;2023-12-20T04:47:09;6.00;99.90
14031;DHT22;7090;49.436;8.490;2023-12-20T04:49:34;6.00;99.90
14031;DHT22;7090;49.436;8.490;2023-12-20T04:52:00;6.00;99.90
14031;DHT22;7090;49.436;8.490;2023-12-20T04:54:25;6.00;99.90
14031;DHT22;7090;49.436;8.490;2023-12-20T04:56:51;6.00;99.90
14031;DHT22;7090;49.436;8.490;2023-12-20T04:59:16;6.00;99.90
14031;DHT22;7090;49.436;8.490;2023-12-20T05:01:42;6.00;99.90
14031;DHT22;7090;49.436;8.490;2023-12-20T05:04:08;6.00;99.90
14031;DHT22;7090;49.436;8.490;2023-12-20T05:06:33;6.10;99.90
14031;DHT22;7090;49.436;8.490;2023-12-20T05:08:59;6.10;99.90
14031;DHT22;7090;49.436;8.490;2023-12-20T05:11:24;6.20;99.90
14031;DHT22;7090;49.436;8.490;2023-12-20T05:13:50;6.20;99.90
14031;DHT22;7090;49.436;8.490;2023-12-20T05:16:15;6.30;99.90
14031;DHT22;7090;49.436;8.490;2023-12-20T05:18:43;6.30;99.90
14031;DHT22;7090;49.436;8.490;2023-12-20T05:21:09;6.30;99.90
14031;DHT22;7090;49.436;8.490;2023-12-20T05:23:34;6.40;99.90
14031;DHT22;7090;49.436;8.490;2023-12-20T05:26:00;6.40;99.90
14031;DHT22;7090;49.436;8.490;2023-12-20T05:28:25;6.40;99.90
14031;DHT22;7090;49.436;8.490;2023-12-20T05:30:51;6.40;99.90
14031;DHT22;7090;49.436;8.490;2023-12-20T05:33:17;6.50;99.90
14031;DHT22;7090;49.436;8.490;2023-12-20T05:35:42;6.50;99.90
14031;DHT22;7090;49.436;8.490;2023-12-20T05:38:08;6.50;99.90
14031;DHT22;7090;49.436;8.490;2023-12-20T05:40:33;6.50;99.90
14031;DHT22;7090;49.436;8.490;2023-12-20T05:42:59;6.50;99.90
14031;DHT22;7090;49.436;8.490;2023-12-20T05:45:24;6.50;99.90
14031;DHT22;7090;49.436;8.490;2023-12-20T05:47:50;6.50;99.90
14031;DHT22;7090;49.436;8.490;2023-12-20T05:50:16;6.50;99.90
14031;DHT22;7090;49.436;8.490;2023-12-20T05:52:41;6.60;99.90
14031;DHT22;7090;49.436;8.490;2023-12-20T05:55:07;6.60;99.90
14031;DHT22;7090;49.436;8.490;2023-12-20T05:57:32;6.60;99.90
14031;DHT22;7090;49.436;8.490;2023-12-20T05:59:58;6.50;99.90
14031;DHT22;7090;49.436;8.490;2023-12-20T06:02:23;6.60;99.90
14031;DHT22;7090;49.436;8.490;2023-12-20T06:04:49;6.50;99.90
14031;DHT22;7090;49.436;8.490;2023-12-20T06:07:16;6.50;99.90
14031;DHT22;7090;49.436;8.490;2023-12-20T06:09:41;6.50;99.90
14031;DHT22;7090;49.436;8.490;2023-12-20T06:12:07;6.50;99.90
14031;DHT22;7090;49.436;8.490;2023-12-20T06:14:36;6.50;99.90
14031;DHT22;7090;49.436;8.490;2023-12-20T06:17:01;6.60;99.90
14031;DHT22;7090;49.436;8.490;2023-12-20T06:19:27;6.50;99.90
14031;DHT22;7090;49.436;8.490;2023-12-20T06:21:53;6.60;99.90
14031;DHT22;7090;49.436;8.490;2023-12-20T06:24:19;6.60;99.90
14031;DHT22;7090;49.436;8.490;2023-12-20T06:26:45;6.50;99.90
14031;DHT22;7090;49.436;8.490;2023-12-20T06:29:10;6.50;99.90
14031;DHT22;7090;49.436;8.490;2023-12-20T06:31:36;6.50;99.90
14031;DHT22;7090;49.436;8.490;2023-12-20T06:34:02;6.50;99.90
14031;DHT22;7090;49.436;8.490;2023-12-20T06:36:28;6.50;99.90
14031;DHT22;7090;49.436;8.490;2023-12-20T06:38:54;6.40;99.90
14031;DHT22;7090;49.436;8.490;2023-12-20T06:41:19;6.40;99.90
14031;DHT22;7090;49.436;8.490;2023-12-20T06:43:45;6.30;99.90
14031;DHT22;7090;49.436;8.490;2023-12-20T06:46:10;6.20;99.90
14031;DHT22;7090;49.436;8.490;2023-12-20T06:48:38;6.10;99.90
14031;DHT22;7090;49.436;8.490;2023-12-20T06:51:05;6.10;99.90
14031;DHT22;7090;49.436;8.490;2023-12-20T06:53:31;6.10;99.90
14031;DHT22;7090;49.436;8.490;2023-12-20T06:55:57;6.00;99.90
14031;DHT22;7090;49.436;8.490;2023-12-20T06:58:23;6.00;99.90
14031;DHT22;7090;49.436;8.490;2023-12-20T07:00:49;6.00;99.90
14031;DHT22;7090;49.436;8.490;2023-12-20T07:03:14;6.10;99.90
14031;DHT22;7090;49.436;8.490;2023-12-20T07:05:40;6.10;99.90
14031;DHT22;7090;49.436;8.490;2023-12-20T07:08:06;6.20;99.90
14031;DHT22;7090;49.436;8.490;2023-12-20T07:10:32;6.20;99.90
14031;DHT22;7090;49.436;8.490;2023-12-20T07:12:57;6.20;99.90
14031;DHT22;7090;49.436;8.490;2023-12-20T07:15:23;6.20;99.90
14031;DHT22;7090;49.436;8.490;2023-12-20T07:17:49;6.10;99.90
14031;DHT22;7090;49.436;8.490;2023-12-20T07:20:15;6.10;99.90
14031;DHT22;7090;49.436;8.490;2023-12-20T07:22:40;6.00;99.90
14031;DHT22;7090;49.436;8.490;2023-12-20T07:25:06;6.00;99.90
14031;DHT22;7090;49.436;8.490;2023-12-20T07:27:32;6.00;99.90
14031;DHT22;7090;49.436;8.490;2023-12-20T07:29:57;6.00;99.90
14031;DHT22;7090;49.436;8.490;2023-12-20T07:32:23;6.00;99.90
14031;DHT22;7090;49.436;8.490;2023-12-20T07:34:48;6.00;99.90
14031;DHT22;7090;49.436;8.490;2023-12-20T07:37:14;5.90;99.90
14031;DHT22;7090;49.436;8.490;2023-12-20T07:39:40;5.90;99.90
14031;DHT22;7090;49.436;8.490;2023-12-20T07:42:07;5.90;99.90
14031;DHT22;7090;49.436;8.490;2023-12-20T07:44:32;5.80;99.90
14031;DHT22;7090;49.436;8.490;2023-12-20T07:46:58;5.80;99.90
14031;DHT22;7090;49.436;8.490;2023-12-20T07:49:24;5.70;99.90
14031;DHT22;7090;49.436;8.490;2023-12-20T07:51:49;5.70;99.90
14031;DHT22;7090;49.436;8.490;2023-12-20T07:54:15;5.60;99.90
14031;DHT22;7090;49.436;8.490;2023-12-20T07:56:41;5.60;99.90
14031;DHT22;7090;49.436;8.490;2023-12-20T07:59:07;5.60;99.90
14031;DHT22;7090;49.436;8.490;2023-12-20T08:01:33;5.70;99.90
14031;DHT22;7090;49.436;8.490;2023-12-20T08:03:58;5.60;99.90
14031;DHT22;7090;49.436;8.490;2023-12-20T08:06:24;5.70;99.90
14031;DHT22;7090;49.436;8.490;2023-12-20T08:08:49;5.80;99.90
14031;DHT22;7090;49.436;8.490;2023-12-20T08:11:15;5.90;99.90
14031;DHT22;7090;49.436;8.490;2023-12-20T08:13:41;5.90;99.90
14031;DHT22;7090;49.436;8.490;2023-12-20T08:16:06;6.00;99.90
14031;DHT22;7090;49.436;8.490;2023-12-20T08:18:32;6.20;99.90
14031;DHT22;7090;49.436;8.490;2023-12-20T08:20:57;6.40;99.90
14031;DHT22;7090;49.436;8.490;2023-12-20T08:23:23;6.50;99.90
14031;DHT22;7090;49.436;8.490;2023-12-20T08:25:49;6.40;99.90
14031;DHT22;7090;49.436;8.490;2023-12-20T08:28:15;6.30;99.90
14031;DHT22;7090;49.436;8.490;2023-12-20T08:30:40;6.20;99.90
14031;DHT22;7090;49.436;8.490;2023-12-20T08:33:06;6.00;99.90
14031;DHT22;7090;49.436;8.490;2023-12-20T08:35:36;5.90;99.90
14031;DHT22;7090;49.436;8.490;2023-12-20T08:38:02;5.90;99.90
14031;DHT22;7090;49.436;8.490;2023-12-20T08:40:29;6.00;99.90
14031;DHT22;7090;49.436;8.490;2023-12-20T08:42:55;6.00;99.90
14031;DHT22;7090;49.436;8.490;2023-12-20T08:45:20;6.00;99.90
14031;DHT22;7090;49.436;8.490;2023-12-20T08:47:46;6.20;99.90
14031;DHT22;7090;49.436;8.490;2023-12-20T08:50:12;6.30;99.90
14031;DHT22;7090;49.436;8.490;2023-12-20T08:52:37;6.30;99.90
14031;DHT22;7090;49.436;8.490;2023-12-20T08:55:03;6.10;99.90
14031;DHT22;7090;49.436;8.490;2023-12-20T08:57:29;6.10;99.90
14031;DHT22;7090;49.436;8.490;2023-12-20T08:59:57;6.20;99.90
14031;DHT22;7090;49.436;8.490;2023-12-20T09:02:22;6.30;99.90
14031;DHT22;7090;49.436;8.490;2023-12-20T09:04:48;6.50;99.90
14031;DHT22;7090;49.436;8.490;2023-12-20T09:07:26;6.70;99.90
14031;DHT22;7090;49.436;8.490;2023-12-20T09:09:52;6.90;99.90
14031;DHT22;7090;49.436;8.490;2023-12-20T09:12:22;7.10;99.90
14031;DHT22;7090;49.436;8.490;2023-12-20T09:14:49;7.20;99.90
14031;DHT22;7090;49.436;8.490;2023-12-20T09:17:16;7.30;99.90
14031;DHT22;7090;49.436;8.490;2023-12-20T09:19:42;7.40;99.90
14031;DHT22;7090;49.436;8.490;2023-12-20T09:22:12;7.60;99.90
14031;DHT22;7090;49.436;8.490;2023-12-20T09:24:38;7.80;99.90
14031;DHT22;7090;49.436;8.490;2023-12-20T09:27:06;8.10;99.90
14031;DHT22;7090;49.436;8.490;2023-12-20T09:29:32;8.30;99.90
14031;DHT22;7090;49.436;8.490;2023-12-20T09:31:57;8.60;99.90
14031;DHT22;7090;49.436;8.490;2023-12-20T09:34:23;8.30;99.90
14031;DHT22;7090;49.436;8.490;2023-12-20T09:36:49;8.50;99.90
14031;DHT22;7090;49.436;8.490;2023-12-20T09:39:16;8.70;14.40
14031;DHT22;7090;49.436;8.490;2023-12-20T09:42:11;8.80;12.00
14031;DHT22;7090;49.436;8.490;2023-12-20T09:44:35;8.70;1.00
14031;DHT22;7090;49.436;8.490;2023-12-20T09:47:03;8.80;1.00
14031;DHT22;7090;49.436;8.490;2023-12-20T09:49:30;8.90;1.00
14031;DHT22;7090;49.436;8.490;2023-12-20T09:51:56;9.00;1.00
14031;DHT22;7090;49.436;8.490;2023-12-20T09:54:22;9.40;1.00
14031;DHT22;7090;49.436;8.490;2023-12-20T09:56:48;9.40;1.00
14031;DHT22;7090;49.436;8.490;2023-12-20T09:59:14;9.50;1.00
14031;DHT22;7090;49.436;8.490;2023-12-20T10:01:41;9.70;1.00
14031;DHT22;7090;49.436;8.490;2023-12-20T10:04:09;9.80;1.00
14031;DHT22;7090;49.436;8.490;2023-12-20T10:06:41;9.80;1.00
14031;DHT22;7090;49.436;8.490;2023-12-20T10:09:07;10.30;1.00
14031;DHT22;7090;49.436;8.490;2023-12-20T10:11:35;10.00;1.00
14031;DHT22;7090;49.436;8.490;2023-12-20T10:14:02;10.20;1.00
14031;DHT22;7090;49.436;8.490;2023-12-20T10:16:29;10.30;1.00
14031;DHT22;7090;49.436;8.490;2023-12-20T10:18:55;10.10;1.00
14031;DHT22;7090;49.436;8.490;2023-12-20T10:21:22;10.10;1.00
14031;DHT22;7090;49.436;8.490;2023-12-20T10:23:49;9.70;1.00
14031;DHT22;7090;49.436;8.490;2023-12-20T10:26:21;9.40;1.00
14031;DHT22;7090;49.436;8.490;2023-12-20T10:28:50;8.90;1.00
14031;DHT22;7090;49.436;8.490;2023-12-20T10:31:29;8.90;1.00
14031;DHT22;7090;49.436;8.490;2023-12-20T10:33:59;8.60;1.00
14031;DHT22;7090;49.436;8.490;2023-12-20T10:36:29;8.50;1.00
14031;DHT22;7090;49.436;8.490;2023-12-20T10:38:56;8.30;1.00
14031;DHT22;7090;49.436;8.490;2023-12-20T10:41:30;8.20;1.00
14031;DHT22;7090;49.436;8.490;2023-12-20T10:44:03;8.20;1.00
14031;DHT22;7090;49.436;8.490;2023-12-20T10:46:33;8.10;1.00
14031;DHT22;7090;49.436;8.490;2023-12-20T10:49:02;8.10;1.00
14031;DHT22;7090;49.436;8.490;2023-12-20T10:51:27;8.00;1.00
14031;DHT22;7090;49.436;8.490;2023-12-20T10:53:55;8.10;1.00
14031;DHT22;7090;49.436;8.490;2023-12-20T10:56:21;8.10;1.00
14031;DHT22;7090;49.436;8.490;2023-12-20T10:58:49;8.00;1.00
14031;DHT22;7090;49.436;8.490;2023-12-20T11:01:16;8.00;1.00
14031;DHT22;7090;49.436;8.490;2023-12-20T11:03:49;8.00;1.00
14031;DHT22;7090;49.436;8.490;2023-12-20T11:06:29;8.10;1.00
14031;DHT22;7090;49.436;8.490;2023-12-20T11:09:14;8.10;1.00
14031;DHT22;7090;49.436;8.490;2023-12-20T11:14:22;8.10;1.00
14031;DHT22;7090;49.436;8.490;2023-12-20T11:16:49;7.90;7.00
14031;DHT22;7090;49.436;8.490;2023-12-20T11:19:16;7.80;99.90
14031;DHT22;7090;49.436;8.490;2023-12-20T11:21:42;7.80;99.90
14031;DHT22;7090;49.436;8.490;2023-12-20T11:24:08;7.70;99.90
14031;DHT22;7090;49.436;8.490;2023-12-20T11:26:34;7.70;99.90
14031;DHT22;7090;49.436;8.490;2023-12-20T11:29:31;7.70;99.90
14031;DHT22;7090;49.436;8.490;2023-12-20T11:31:59;7.70;99.90
14031;DHT22;7090;49.436;8.490;2023-12-20T11:34:27;7.60;99.90
14031;DHT22;7090;49.436;8.490;2023-12-20T11:37:00;7.60;99.90
14031;DHT22;7090;49.436;8.490;2023-12-20T11:39:28;7.60;99.90
14031;DHT22;7090;49.436;8.490;2023-12-20T11:41:55;7.60;99.90
14031;DHT22;7090;49.436;8.490;2023-12-20T11:44:21;7.60;99.90
14031;DHT22;7090;49.436;8.490;2023-12-20T11:46:47;7.60;99.90
14031;DHT22;7090;49.436;8.490;2023-12-20T11:49:13;7.60;99.90
14031;DHT22;7090;49.436;8.490;2023-12-20T11:51:41;7.60;99.90
14031;DHT22;7090;49.436;8.490;2023-12-20T11:54:07;7.60;99.90
14031;DHT22;7090;49.436;8.490;2023-12-20T11:56:35;7.60;99.90
14031;DHT22;7090;49.436;8.490;2023-12-20T11:59:01;7.60;99.90
14031;DHT22;7090;49.436;8.490;2023-12-20T12:01:27;7.60;55.40
14031;DHT22;7090;49.436;8.490;2023-12-20T12:04:07;7.60;99.90
14031;DHT22;7090;49.436;8.490;2023-12-20T12:06:34;7.60;99.90
14031;DHT22;7090;49.436;8.490;2023-12-20T12:08:59;7.60;99.90
14031;DHT22;7090;49.436;8.490;2023-12-20T12:11:25;7.60;99.90
14031;DHT22;7090;49.436;8.490;2023-12-20T12:13:51;7.50;99.90
14031;DHT22;7090;49.436;8.490;2023-12-20T12:16:20;7.50;99.90
14031;DHT22;7090;49.436;8.490;2023-12-20T12:18:46;7.50;99.90
14031;DHT22;7090;49.436;8.490;2023-12-20T12:21:19;7.50;99.90
14031;DHT22;7090;49.436;8.490;2023-12-20T12:23:46;7.50;99.90
14031;DHT22;7090;49.436;8.490;2023-12-20T12:26:11;7.50;99.90
14031;DHT22;7090;49.436;8.490;2023-12-20T12:28:40;7.50;99.90
14031;DHT22;7090;49.436;8.490;2023-12-20T12:31:06;7.50;99.90
14031;DHT22;7090;49.436;8.490;2023-12-20T12:33:32;7.50;99.90
14031;DHT22;7090;49.436;8.490;2023-12-20T12:35:57;7.50;99.90
14031;DHT22;7090;49.436;8.490;2023-12-20T12:38:27;7.60;99.90
14031;DHT22;7090;49.436;8.490;2023-12-20T12:40:54;7.60;99.90
14031;DHT22;7090;49.436;8.490;2023-12-20T12:43:20;7.50;16.00
14031;DHT22;7090;49.436;8.490;2023-12-20T12:45:48;7.50;1.00
14031;DHT22;7090;49.436;8.490;2023-12-20T12:48:14;7.60;33.40
14031;DHT22;7090;49.436;8.490;2023-12-20T12:50:40;7.60;31.50
14031;DHT22;7090;49.436;8.490;2023-12-20T12:53:05;7.50;76.30
14031;DHT22;7090;49.436;8.490;2023-12-20T12:55:31;7.50;99.90
14031;DHT22;7090;49.436;8.490;2023-12-20T12:57:57;7.50;99.90
14031;DHT22;7090;49.436;8.490;2023-12-20T13:00:23;7.40;99.90
14031;DHT22;7090;49.436;8.490;2023-12-20T13:02:49;7.40;99.90
14031;DHT22;7090;49.436;8.490;2023-12-20T13:05:15;7.40;99.90
14031;DHT22;7090;49.436;8.490;2023-12-20T13:07:40;7.40;99.90
14031;DHT22;7090;49.436;8.490;2023-12-20T13:10:06;7.40;99.90
14031;DHT22;7090;49.436;8.490;2023-12-20T13:12:32;7.40;99.90
14031;DHT22;7090;49.436;8.490;2023-12-20T13:14:57;7.30;99.90
14031;DHT22;7090;49.436;8.490;2023-12-20T13:17:23;7.40;99.90
14031;DHT22;7090;49.436;8.490;2023-12-20T13:19:49;7.40;99.90
14031;DHT22;7090;49.436;8.490;2023-12-20T13:22:15;7.40;99.90
14031;DHT22;7090;49.436;8.490;2023-12-20T13:24:41;7.40;99.90
14031;DHT22;7090;49.436;8.490;2023-12-20T13:27:09;7.40;99.90
14031;DHT22;7090;49.436;8.490;2023-12-20T13:29:35;7.40;99.90
14031;DHT22;7090;49.436;8.490;2023-12-20T13:32:01;7.50;99.90
14031;DHT22;7090;49.436;8.490;2023-12-20T13:34:26;7.50;90.70
14031;DHT22;7090;49.436;8.490;2023-12-20T13:36:52;7.50;78.20
14031;DHT22;7090;49.436;8.490;2023-12-20T13:39:18;7.50;25.30
14031;DHT22;7090;49.436;8.490;2023-12-20T13:41:43;7.60;91.20
14031;DHT22;7090;49.436;8.490;2023-12-20T13:44:09;7.60;21.10
14031;DHT22;7090;49.436;8.490;2023-12-20T13:46:35;7.60;18.10
14031;DHT22;7090;49.436;8.490;2023-12-20T13:49:01;7.60;1.00
14031;DHT22;7090;49.436;8.490;2023-12-20T13:51:27;7.70;1.00
14031;DHT22;7090;49.436;8.490;2023-12-20T13:53:52;7.70;1.00
14031;DHT22;7090;49.436;8.490;2023-12-20T13:56:18;7.80;1.00
14031;DHT22;7090;49.436;8.490;2023-12-20T13:58:45;7.70;1.00
14031;DHT22;7090;49.436;8.490;2023-12-20T14:01:12;7.70;1.00
14031;DHT22;7090;49.436;8.490;2023-12-20T14:03:37;7.70;1.50
14031;DHT22;7090;49.436;8.490;2023-12-20T14:06:03;7.70;1.00
14031;DHT22;7090;49.436;8.490;2023-12-20T14:08:29;7.70;1.00
14031;DHT22;7090;49.436;8.490;2023-12-20T14:10:54;7.80;77.50
14031;DHT22;7090;49.436;8.490;2023-12-20T14:13:20;7.80;25.30
14031;DHT22;7090;49.436;8.490;2023-12-20T14:15:46;7.90;3.40
14031;DHT22;7090;49.436;8.490;2023-12-20T14:18:12;7.80;1.00
14031;DHT22;7090;49.436;8.490;2023-12-20T14:20:40;7.80;1.00
14031;DHT22;7090;49.436;8.490;2023-12-20T14:23:08;7.80;12.80
14031;DHT22;7090;49.436;8.490;2023-12-20T14:25:35;7.80;9.90
14031;DHT22;7090;49.436;8.490;2023-12-20T14:28:03;7.90;1.00
14031;DHT22;7090;49.436;8.490;2023-12-20T14:30:32;7.90;1.00
14031;DHT22;7090;49.436;8.490;2023-12-20T14:32:57;8.00;1.00
14031;DHT22;7090;49.436;8.490;2023-12-20T14:35:23;8.00;85.50
14031;DHT22;7090;49.436;8.490;2023-12-20T14:37:49;7.90;36.50
14031;DHT22;7090;49.436;8.490;2023-12-20T14:40:15;7.80;99.90
14031;DHT22;7090;49.436;8.490;2023-12-20T14:42:45;7.80;99.90
14031;DHT22;7090;49.436;8.490;2023-12-20T14:45:11;7.70;99.90
14031;DHT22;7090;49.436;8.490;2023-12-20T14:47:38;7.60;99.90
14031;DHT22;7090;49.436;8.490;2023-12-20T14:50:04;7.50;99.90
14031;DHT22;7090;49.436;8.490;2023-12-20T14:52:31;7.50;99.90
14031;DHT22;7090;49.436;8.490;2023-12-20T14:54:56;7.50;99.90
14031;DHT22;7090;49.436;8.490;2023-12-20T14:57:22;7.40;99.90
14031;DHT22;7090;49.436;8.490;2023-12-20T14:59:47;7.40;99.90
14031;DHT22;7090;49.436;8.490;2023-12-20T15:02:13;7.40;99.90
14031;DHT22;7090;49.436;8.490;2023-12-20T15:04:38;7.30;99.90
14031;DHT22;7090;49.436;8.490;2023-12-20T15:07:05;7.40;99.90
14031;DHT22;7090;49.436;8.490;2023-12-20T15:09:31;7.30;99.90
14031;DHT22;7090;49.436;8.490;2023-12-20T15:11:57;7.30;99.90
14031;DHT22;7090;49.436;8.490;2023-12-20T15:14:22;7.30;99.90
14031;DHT22;7090;49.436;8.490;2023-12-20T15:16:48;7.20;99.90
14031;DHT22;7090;49.436;8.490;2023-12-20T15:19:14;7.20;99.90
14031;DHT22;7090;49.436;8.490;2023-12-20T15:21:40;7.20;99.90
14031;DHT22;7090;49.436;8.490;2023-12-20T15:24:11;7.20;99.90
14031;DHT22;7090;49.436;8.490;2023-12-20T15:26:51;7.20;99.90
14031;DHT22;7090;49.436;8.490;2023-12-20T15:29:17;7.20;99.90
14031;DHT22;7090;49.436;8.490;2023-12-20T15:31:44;7.20;99.90
14031;DHT22;7090;49.436;8.490;2023-12-20T15:34:10;7.20;99.90
14031;DHT22;7090;49.436;8.490;2023-12-20T15:36:36;7.10;99.90
14031;DHT22;7090;49.436;8.490;2023-12-20T15:39:03;7.20;99.90
14031;DHT22;7090;49.436;8.490;2023-12-20T15:41:29;7.20;99.90
14031;DHT22;7090;49.436;8.490;2023-12-20T15:43:55;7.10;99.90
14031;DHT22;7090;49.436;8.490;2023-12-20T15:46:21;7.20;99.90
14031;DHT22;7090;49.436;8.490;2023-12-20T15:48:47;7.10;99.90
14031;DHT22;7090;49.436;8.490;2023-12-20T15:51:14;7.10;99.90
14031;DHT22;7090;49.436;8.490;2023-12-20T15:53:40;7.00;99.90
14031;DHT22;7090;49.436;8.490;2023-12-20T15:56:06;7.00;99.90
14031;DHT22;7090;49.436;8.490;2023-12-20T15:58:31;7.00;99.90
14031;DHT22;7090;49.436;8.490;2023-12-20T16:00:58;7.00;99.90